Cranbrook Airport
CYXC : now visible

Airfield :











YOU CAN JOIN US ON...

 
LOGIN :

Register | Disclaimer

   EN    FR    IT 

 









Legend :    VFR   Marginal VFR   IFR   Intensive IFR   Very Intensive IFR
Visi :
Ceiling :
>= 8 km
>= 3000ft
5 to 8 km
1000 to 3000 ft
1500m to 5 km
500 to 1000 ft
800 to 1500m
200 to 500 ft
< 800m
< 200 ft
Symbols :   Thunderstorms  Fog  Heavy snow  Heavy precipitations  Wind > 20 kt






- Airport Elevation : 3082 ft
- IATA code : YXC


CYXC - Cranbrook

CURRENT METAR :
  • 021700Z 15003KT 2SM BR FEW002 BKN012 OVC065 19/19 A3016 RMK SF2SC3SC3 SLP203 DENSITY ALT 4100FT

EXPIRED METARs :
  • 021651Z 13002KT 2SM BR SCT002 BKN009 OVC060 19/19 A3016 RMK SC3SC3SC2 SLP203 DENSITY ALT 4100FT
  • 021608Z VRB02KT 1 1/2SM -RA BR FEW002 BKN005 OVC008 19/19 A3017 RMK SF2SC4SC2 SLP201 DENSITY ALT 4000FT
  • 021542Z 21002KT 1 1/2SM RA BR SCT007 OVC018 19/19 A3017 RMK SC3SC5 SLP202 DENSITY ALT 4000FT
  • 021525Z 19004KT 1 3/4SM -RA BR SCT005 OVC026 19/19 A3017 RMK SF3SC5 SLP199 DENSITY ALT 4000FT
  • 021500Z 18003KT 2SM -RA BR OVC032 19/19 A3017 RMK SC8 SLP197 DENSITY ALT 4000FT

TAF AMD TAF CYXC
Valid from the 02 at 17:00 until the 03 at 01:00 UTC


021717Z 0217/0301 VRB03KT P6SM OVC060
TEMPO 0217/0220 2SM -RA BR FU BKN012
FM022000 14008KT P6SM SCT040 OVC080
TEMPO 0220/0301 3SM -SHRA FU OVC040
PROB40 0220/0301 2SM TSRA FU OVC030CB RMK NXT FCST BY 021900Z
CZVR FIR / North America



MET'MAP, your aeronautical weather chart ! - Copyright ORBIFLY December 2007 - Disclaimer

ORBIFLY MET'MAP TEAM :

Programming & Development : Alexandra Zaïnal
Concept & original design : Baudouin d'Aumeries
Assistance for programming : Marc-Olivier Méhu
Technical & hardware support : Manuel Goepfert

Contact : metmap@orbifly.com




SOURCES & CREDITS :

   NOAA       Earth
Advisory